Blenker, Wisconsin
Current Conditions -  °F | °C
As of 10:54 PM on Saturday 25 Oct 2014 (Local Time) from KMFI Reporting Station
Clear Clear  
Wind Chill: 38°   Ceiling: Unl
Heat Index: 42°   Visibility: 10mi
Dew Point: 28°   Wind: 7mph
Humidity: 58%   Direction: 310°NW
Pressure: 29.98"   Gusts: NA
Location:  44.61°N, 89.92°W
Report Text: KMFI 260354Z AUTO 31006KT 10SM CLR 06/M02 A2998 RMK AO2 SLP158 T00561022
Loading
Personal Weather Stations






























Interactive Weather Map New forecast layout! Learn more

10-Day Weather Forecast

Advertisements
Track Severe Weather on mobile